sensor_id;sensor_type;location;lat;lon;timestamp;P1;P2;P0
77692;PMS5003;66984;47.404;18.836;2023-02-28T16:00:59;9.50;9.50;5.50
77692;PMS5003;66984;47.404;18.836;2023-02-28T16:02:19;13.50;13.00;5.00
77692;PMS5003;66984;47.404;18.836;2023-02-28T16:07:29;9.75;9.75;3.75
77692;PMS5003;66984;47.404;18.836;2023-02-28T16:08:31;7.00;7.00;4.00
77692;PMS5003;66984;47.404;18.836;2023-02-28T16:09:34;7.00;7.00;4.00
77692;PMS5003;66984;47.404;18.836;2023-02-28T16:10:37;7.25;7.25;4.25
77692;PMS5003;66984;47.404;18.836;2023-02-28T16:11:41;15.75;15.75;8.00
77692;PMS5003;66984;47.404;18.836;2023-02-28T16:12:47;23.50;22.50;15.00
77692;PMS5003;66984;47.404;18.836;2023-02-28T16:13:50;28.25;24.50;17.00
77692;PMS5003;66984;47.404;18.836;2023-02-28T16:14:54;29.75;26.00;18.00
77692;PMS5003;66984;47.404;18.836;2023-02-28T16:15:59;27.50;25.00;18.00
77692;PMS5003;66984;47.404;18.836;2023-02-28T16:17:04;27.50;25.25;18.00
77692;PMS5003;66984;47.404;18.836;2023-02-28T16:18:11;34.50;29.25;19.50
77692;PMS5003;66984;47.404;18.836;2023-02-28T16:19:14;35.50;31.00;21.00
77692;PMS5003;66984;47.404;18.836;2023-02-28T16:21:31;30.75;27.00;19.00
77692;PMS5003;66984;47.404;18.836;2023-02-28T16:22:33;24.00;23.00;17.00
77692;PMS5003;66984;47.404;18.836;2023-02-28T16:23:36;22.00;21.00;16.00
77692;PMS5003;66984;47.404;18.836;2023-02-28T16:24:39;24.00;24.00;16.00
77692;PMS5003;66984;47.404;18.836;2023-02-28T16:25:43;35.00;30.00;19.75
77692;PMS5003;66984;47.404;18.836;2023-02-28T16:26:48;29.00;24.00;16.00
77692;PMS5003;66984;47.404;18.836;2023-02-28T16:27:54;24.50;23.50;15.50
77692;PMS5003;66984;47.404;18.836;2023-02-28T16:29:00;27.50;23.75;15.50
77692;PMS5003;66984;47.404;18.836;2023-02-28T16:30:04;31.00;26.50;17.25
77692;PMS5003;66984;47.404;18.836;2023-02-28T16:31:09;39.00;32.00;20.00
77692;PMS5003;66984;47.404;18.836;2023-02-28T16:32:18;40.50;34.50;21.75
77692;PMS5003;66984;47.404;18.836;2023-02-28T16:33:21;43.00;35.00;23.00
77692;PMS5003;66984;47.404;18.836;2023-02-28T16:34:24;32.00;27.75;17.50
77692;PMS5003;66984;47.404;18.836;2023-02-28T16:35:27;25.75;24.00;15.00
77692;PMS5003;66984;47.404;18.836;2023-02-28T16:36:30;29.50;25.50;16.50
77692;PMS5003;66984;47.404;18.836;2023-02-28T16:37:33;31.00;27.00;17.00
77692;PMS5003;66984;47.404;18.836;2023-02-28T16:38:35;24.00;23.25;16.00
77692;PMS5003;66984;47.404;18.836;2023-02-28T16:39:38;23.00;22.00;15.00
77692;PMS5003;66984;47.404;18.836;2023-02-28T16:40:41;20.00;20.00;12.00
77692;PMS5003;66984;47.404;18.836;2023-02-28T16:41:44;20.00;19.00;11.00
77692;PMS5003;66984;47.404;18.836;2023-02-28T16:42:50;21.50;20.25;12.00
77692;PMS5003;66984;47.404;18.836;2023-02-28T16:43:56;20.00;20.00;12.00
77692;PMS5003;66984;47.404;18.836;2023-02-28T16:45:02;19.50;18.00;11.50
77692;PMS5003;66984;47.404;18.836;2023-02-28T16:46:05;18.75;18.00;12.00
77692;PMS5003;66984;47.404;18.836;2023-02-28T16:47:08;20.00;20.00;11.00
77692;PMS5003;66984;47.404;18.836;2023-02-28T16:48:15;20.50;20.00;11.00
77692;PMS5003;66984;47.404;18.836;2023-02-28T16:49:18;20.00;19.00;11.00
77692;PMS5003;66984;47.404;18.836;2023-02-28T16:50:25;23.50;23.50;13.25
77692;PMS5003;66984;47.404;18.836;2023-02-28T16:51:29;24.00;24.00;16.00
77692;PMS5003;66984;47.404;18.836;2023-02-28T16:52:35;23.00;22.75;14.75
77692;PMS5003;66984;47.404;18.836;2023-02-28T16:53:38;20.25;20.00;12.00
77692;PMS5003;66984;47.404;18.836;2023-02-28T16:54:41;18.50;18.25;9.25
77692;PMS5003;66984;47.404;18.836;2023-02-28T16:55:44;17.00;17.00;7.50
77692;PMS5003;66984;47.404;18.836;2023-02-28T16:56:47;18.25;18.00;8.50
77692;PMS5003;66984;47.404;18.836;2023-02-28T16:57:52;32.00;28.00;16.25
77692;PMS5003;66984;47.404;18.836;2023-02-28T16:58:58;27.00;25.50;16.00
77692;PMS5003;66984;47.404;18.836;2023-02-28T17:00:04;22.00;22.00;15.50
77692;PMS5003;66984;47.404;18.836;2023-02-28T17:01:10;27.75;25.00;15.25
77692;PMS5003;66984;47.404;18.836;2023-02-28T17:02:14;33.00;28.00;17.25
77692;PMS5003;66984;47.404;18.836;2023-02-28T17:03:22;27.00;25.00;16.00
77692;PMS5003;66984;47.404;18.836;2023-02-28T17:04:33;26.25;24.00;15.50
77692;PMS5003;66984;47.404;18.836;2023-02-28T17:05:37;34.50;29.25;17.75
77692;PMS5003;66984;47.404;18.836;2023-02-28T17:06:41;31.00;27.25;16.50
77692;PMS5003;66984;47.404;18.836;2023-02-28T17:07:44;43.00;34.75;21.75
77692;PMS5003;66984;47.404;18.836;2023-02-28T17:08:48;46.50;36.00;23.00
77692;PMS5003;66984;47.404;18.836;2023-02-28T17:09:52;39.50;31.50;20.00
77692;PMS5003;66984;47.404;18.836;2023-02-28T17:10:54;32.00;26.25;17.00
77692;PMS5003;66984;47.404;18.836;2023-02-28T17:11:57;37.25;31.75;18.50
77692;PMS5003;66984;47.404;18.836;2023-02-28T17:13:01;41.75;35.50;22.00
77692;PMS5003;66984;47.404;18.836;2023-02-28T17:14:15;39.00;33.00;20.25
77692;PMS5003;66984;47.404;18.836;2023-02-28T17:15:18;35.00;30.00;19.00
77692;PMS5003;66984;47.404;18.836;2023-02-28T17:16:26;30.50;26.25;16.00
77692;PMS5003;66984;47.404;18.836;2023-02-28T17:17:34;23.00;22.00;14.00
77692;PMS5003;66984;47.404;18.836;2023-02-28T17:18:37;23.00;21.00;14.00
77692;PMS5003;66984;47.404;18.836;2023-02-28T17:19:41;39.50;32.00;19.75
77692;PMS5003;66984;47.404;18.836;2023-02-28T17:20:46;36.25;30.00;19.00
77692;PMS5003;66984;47.404;18.836;2023-02-28T17:21:49;28.25;25.50;16.00
77692;PMS5003;66984;47.404;18.836;2023-02-28T17:22:52;23.50;23.00;15.00
77692;PMS5003;66984;47.404;18.836;2023-02-28T17:23:55;23.00;23.00;14.00
77692;PMS5003;66984;47.404;18.836;2023-02-28T17:24:58;24.25;23.50;15.25
77692;PMS5003;66984;47.404;18.836;2023-02-28T17:26:01;41.00;35.00;22.00
77692;PMS5003;66984;47.404;18.836;2023-02-28T17:27:04;39.25;32.75;21.00
77692;PMS5003;66984;47.404;18.836;2023-02-28T17:28:11;31.75;28.00;17.75
77692;PMS5003;66984;47.404;18.836;2023-02-28T17:29:19;25.50;24.00;15.00
77692;PMS5003;66984;47.404;18.836;2023-02-28T17:30:25;23.50;23.00;15.00
77692;PMS5003;66984;47.404;18.836;2023-02-28T17:31:31;23.00;22.25;14.00
77692;PMS5003;66984;47.404;18.836;2023-02-28T17:32:41;23.00;23.00;15.00
77692;PMS5003;66984;47.404;18.836;2023-02-28T17:33:44;21.00;20.00;15.00
77692;PMS5003;66984;47.404;18.836;2023-02-28T17:34:47;23.50;22.75;15.00
77692;PMS5003;66984;47.404;18.836;2023-02-28T17:35:50;34.25;28.00;18.00
77692;PMS5003;66984;47.404;18.836;2023-02-28T17:36:53;33.00;27.00;18.00
77692;PMS5003;66984;47.404;18.836;2023-02-28T17:37:55;41.75;33.50;21.00
77692;PMS5003;66984;47.404;18.836;2023-02-28T17:38:58;37.25;31.00;19.25
77692;PMS5003;66984;47.404;18.836;2023-02-28T17:40:01;29.25;26.00;17.00
77692;PMS5003;66984;47.404;18.836;2023-02-28T17:41:04;24.00;23.50;16.00
77692;PMS5003;66984;47.404;18.836;2023-02-28T17:42:07;26.00;23.50;15.50
77692;PMS5003;66984;47.404;18.836;2023-02-28T17:43:10;24.00;23.00;15.00
77692;PMS5003;66984;47.404;18.836;2023-02-28T17:44:13;23.00;22.00;14.00
77692;PMS5003;66984;47.404;18.836;2023-02-28T17:45:15;23.00;21.00;13.00
77692;PMS5003;66984;47.404;18.836;2023-02-28T17:46:19;26.75;23.50;15.50
77692;PMS5003;66984;47.404;18.836;2023-02-28T17:47:23;25.00;23.50;15.00
77692;PMS5003;66984;47.404;18.836;2023-02-28T17:48:26;24.00;22.25;15.00
77692;PMS5003;66984;47.404;18.836;2023-02-28T17:49:32;23.00;22.00;15.00
77692;PMS5003;66984;47.404;18.836;2023-02-28T17:50:35;23.00;21.00;15.00
77692;PMS5003;66984;47.404;18.836;2023-02-28T17:51:38;21.50;20.25;15.00
77692;PMS5003;66984;47.404;18.836;2023-02-28T17:52:40;23.00;22.00;14.00
77692;PMS5003;66984;47.404;18.836;2023-02-28T17:53:43;24.75;23.00;13.00
77692;PMS5003;66984;47.404;18.836;2023-02-28T17:54:46;25.50;23.50;15.00
77692;PMS5003;66984;47.404;18.836;2023-02-28T17:55:49;23.50;23.50;15.00
77692;PMS5003;66984;47.404;18.836;2023-02-28T17:56:52;26.00;24.00;15.00
77692;PMS5003;66984;47.404;18.836;2023-02-28T17:57:55;24.50;23.50;14.00
77692;PMS5003;66984;47.404;18.836;2023-02-28T17:58:57;22.50;20.50;13.00
77692;PMS5003;66984;47.404;18.836;2023-02-28T18:00:00;22.00;21.75;11.00
77692;PMS5003;66984;47.404;18.836;2023-02-28T18:01:07;21.50;20.00;11.00
77692;PMS5003;66984;47.404;18.836;2023-02-28T18:02:12;27.75;25.00;15.00
77692;PMS5003;66984;47.404;18.836;2023-02-28T18:03:15;34.00;28.00;18.25
77692;PMS5003;66984;47.404;18.836;2023-02-28T18:04:18;31.75;27.50;17.25
77692;PMS5003;66984;47.404;18.836;2023-02-28T18:05:20;31.00;27.00;17.00
77692;PMS5003;66984;47.404;18.836;2023-02-28T18:06:24;31.75;27.00;18.00
77692;PMS5003;66984;47.404;18.836;2023-02-28T18:07:29;29.00;26.00;17.00
77692;PMS5003;66984;47.404;18.836;2023-02-28T18:08:32;28.75;26.00;16.00
77692;PMS5003;66984;47.404;18.836;2023-02-28T18:09:37;33.50;27.00;17.00
77692;PMS5003;66984;47.404;18.836;2023-02-28T18:10:40;37.00;30.00;19.00
77692;PMS5003;66984;47.404;18.836;2023-02-28T18:11:42;39.50;31.75;19.00
77692;PMS5003;66984;47.404;18.836;2023-02-28T18:12:50;36.00;29.25;19.00
77692;PMS5003;66984;47.404;18.836;2023-02-28T18:13:54;31.00;27.00;18.00
77692;PMS5003;66984;47.404;18.836;2023-02-28T18:15:00;31.00;27.00;17.00
77692;PMS5003;66984;47.404;18.836;2023-02-28T18:16:03;33.50;27.50;18.00
77692;PMS5003;66984;47.404;18.836;2023-02-28T18:17:06;36.00;30.50;19.00
77692;PMS5003;66984;47.404;18.836;2023-02-28T18:18:08;34.00;28.00;19.00
77692;PMS5003;66984;47.404;18.836;2023-02-28T18:19:12;29.75;26.00;17.00
77692;PMS5003;66984;47.404;18.836;2023-02-28T18:20:18;31.00;26.25;17.00
77692;PMS5003;66984;47.404;18.836;2023-02-28T18:21:21;29.00;25.00;15.50
77692;PMS5003;66984;47.404;18.836;2023-02-28T18:22:24;27.50;24.50;15.50
77692;PMS5003;66984;47.404;18.836;2023-02-28T18:23:27;27.00;24.00;15.00
77692;PMS5003;66984;47.404;18.836;2023-02-28T18:24:29;24.00;23.50;15.50
77692;PMS5003;66984;47.404;18.836;2023-02-28T18:25:32;25.00;24.00;15.50
77692;PMS5003;66984;47.404;18.836;2023-02-28T18:26:35;26.00;23.75;15.00
77692;PMS5003;66984;47.404;18.836;2023-02-28T18:27:39;31.50;27.00;15.50
77692;PMS5003;66984;47.404;18.836;2023-02-28T18:28:59;26.50;24.00;15.00
77692;PMS5003;66984;47.404;18.836;2023-02-28T18:30:02;32.25;27.00;17.50
77692;PMS5003;66984;47.404;18.836;2023-02-28T18:31:06;36.00;31.00;18.25
77692;PMS5003;66984;47.404;18.836;2023-02-28T18:32:10;35.00;29.50;18.00
77692;PMS5003;66984;47.404;18.836;2023-02-28T18:33:13;27.50;25.00;16.00
77692;PMS5003;66984;47.404;18.836;2023-02-28T18:34:15;25.00;23.00;15.00
77692;PMS5003;66984;47.404;18.836;2023-02-28T18:35:21;28.00;24.50;15.50
77692;PMS5003;66984;47.404;18.836;2023-02-28T18:36:45;29.00;25.00;16.00
77692;PMS5003;66984;47.404;18.836;2023-02-28T18:37:49;32.50;26.25;17.00
77692;PMS5003;66984;47.404;18.836;2023-02-28T18:38:52;33.00;27.50;18.00
77692;PMS5003;66984;47.404;18.836;2023-02-28T18:39:55;31.00;27.00;17.00
77692;PMS5003;66984;47.404;18.836;2023-02-28T18:40:59;31.50;27.00;16.00
77692;PMS5003;66984;47.404;18.836;2023-02-28T18:42:03;29.75;25.25;16.00
77692;PMS5003;66984;47.404;18.836;2023-02-28T18:43:06;24.75;23.50;15.00
77692;PMS5003;66984;47.404;18.836;2023-02-28T18:44:10;23.50;23.00;14.00
77692;PMS5003;66984;47.404;18.836;2023-02-28T18:45:21;24.50;23.25;14.00
77692;PMS5003;66984;47.404;18.836;2023-02-28T18:46:24;23.25;22.00;14.00
77692;PMS5003;66984;47.404;18.836;2023-02-28T18:47:26;23.50;23.00;13.00
77692;PMS5003;66984;47.404;18.836;2023-02-28T18:48:29;26.00;23.50;14.50
77692;PMS5003;66984;47.404;18.836;2023-02-28T18:49:32;25.00;24.00;16.00
77692;PMS5003;66984;47.404;18.836;2023-02-28T18:50:37;25.75;23.50;15.50
77692;PMS5003;66984;47.404;18.836;2023-02-28T18:51:40;25.00;24.00;16.00
77692;PMS5003;66984;47.404;18.836;2023-02-28T18:52:46;24.00;23.00;15.00
77692;PMS5003;66984;47.404;18.836;2023-02-28T18:53:49;28.00;24.00;16.00
77692;PMS5003;66984;47.404;18.836;2023-02-28T18:54:52;24.00;24.00;15.00
77692;PMS5003;66984;47.404;18.836;2023-02-28T18:55:58;24.50;24.00;16.00
77692;PMS5003;66984;47.404;18.836;2023-02-28T18:57:02;27.50;25.00;16.00
77692;PMS5003;66984;47.404;18.836;2023-02-28T18:58:04;33.00;28.25;18.00
77692;PMS5003;66984;47.404;18.836;2023-02-28T18:59:07;33.00;28.00;17.25
77692;PMS5003;66984;47.404;18.836;2023-02-28T19:00:13;32.00;28.00;18.00
77692;PMS5003;66984;47.404;18.836;2023-02-28T19:01:20;37.00;32.00;20.00
77692;PMS5003;66984;47.404;18.836;2023-02-28T19:02:25;40.50;33.25;21.50
77692;PMS5003;66984;47.404;18.836;2023-02-28T19:03:28;41.00;34.75;22.00
77692;PMS5003;66984;47.404;18.836;2023-02-28T19:04:31;39.75;32.25;20.75
77692;PMS5003;66984;47.404;18.836;2023-02-28T19:05:35;39.25;31.75;20.00
77692;PMS5003;66984;47.404;18.836;2023-02-28T19:06:38;39.00;31.50;20.00
77692;PMS5003;66984;47.404;18.836;2023-02-28T19:07:41;40.00;33.00;20.50
77692;PMS5003;66984;47.404;18.836;2023-02-28T19:08:44;40.50;33.00;21.00
77692;PMS5003;66984;47.404;18.836;2023-02-28T19:09:46;37.00;31.00;20.50
77692;PMS5003;66984;47.404;18.836;2023-02-28T19:10:49;36.00;30.00;19.00
77692;PMS5003;66984;47.404;18.836;2023-02-28T19:11:52;36.00;29.00;18.50
77692;PMS5003;66984;47.404;18.836;2023-02-28T19:12:54;36.00;29.00;18.00
77692;PMS5003;66984;47.404;18.836;2023-02-28T19:13:57;32.50;28.50;18.00
77692;PMS5003;66984;47.404;18.836;2023-02-28T19:15:00;32.50;28.00;17.00
77692;PMS5003;66984;47.404;18.836;2023-02-28T19:16:05;32.25;28.25;18.00
77692;PMS5003;66984;47.404;18.836;2023-02-28T19:17:09;34.00;28.50;17.00
77692;PMS5003;66984;47.404;18.836;2023-02-28T19:18:14;34.50;28.50;16.00
77692;PMS5003;66984;47.404;18.836;2023-02-28T19:19:16;34.25;28.50;17.00
77692;PMS5003;66984;47.404;18.836;2023-02-28T19:20:19;33.00;28.00;18.00
77692;PMS5003;66984;47.404;18.836;2023-02-28T19:21:22;29.75;25.00;17.00
77692;PMS5003;66984;47.404;18.836;2023-02-28T19:22:26;28.50;24.00;16.00
77692;PMS5003;66984;47.404;18.836;2023-02-28T19:23:30;25.00;21.00;15.00
77692;PMS5003;66984;47.404;18.836;2023-02-28T19:24:33;28.00;23.25;14.00
77692;PMS5003;66984;47.404;18.836;2023-02-28T19:25:39;25.00;23.75;13.00
77692;PMS5003;66984;47.404;18.836;2023-02-28T19:26:43;23.00;21.00;13.00
77692;PMS5003;66984;47.404;18.836;2023-02-28T19:27:46;25.00;22.00;13.50
77692;PMS5003;66984;47.404;18.836;2023-02-28T19:28:49;21.00;20.50;13.00
77692;PMS5003;66984;47.404;18.836;2023-02-28T19:29:52;23.00;22.00;12.00
77692;PMS5003;66984;47.404;18.836;2023-02-28T19:30:55;24.00;23.00;12.00
77692;PMS5003;66984;47.404;18.836;2023-02-28T19:31:57;24.00;23.00;12.00
77692;PMS5003;66984;47.404;18.836;2023-02-28T19:33:00;24.75;24.00;13.00
77692;PMS5003;66984;47.404;18.836;2023-02-28T19:34:03;24.25;23.25;13.00
77692;PMS5003;66984;47.404;18.836;2023-02-28T19:35:06;24.50;22.50;12.75
77692;PMS5003;66984;47.404;18.836;2023-02-28T19:36:10;23.50;22.50;15.00
77692;PMS5003;66984;47.404;18.836;2023-02-28T19:37:13;24.25;23.00;14.00
77692;PMS5003;66984;47.404;18.836;2023-02-28T19:38:16;24.75;23.25;14.00
77692;PMS5003;66984;47.404;18.836;2023-02-28T19:39:19;26.00;24.00;14.50
77692;PMS5003;66984;47.404;18.836;2023-02-28T19:40:22;24.75;23.00;14.00
77692;PMS5003;66984;47.404;18.836;2023-02-28T19:41:24;26.00;24.00;15.00
77692;PMS5003;66984;47.404;18.836;2023-02-28T19:42:28;27.00;24.00;14.75
77692;PMS5003;66984;47.404;18.836;2023-02-28T19:43:34;25.00;24.00;16.00
77692;PMS5003;66984;47.404;18.836;2023-02-28T19:44:38;24.50;22.75;15.00
77692;PMS5003;66984;47.404;18.836;2023-02-28T19:45:41;24.00;22.00;13.00
77692;PMS5003;66984;47.404;18.836;2023-02-28T19:46:44;24.00;22.00;12.00
77692;PMS5003;66984;47.404;18.836;2023-02-28T19:47:46;24.00;21.00;13.00
77692;PMS5003;66984;47.404;18.836;2023-02-28T19:48:52;21.00;20.50;13.00
77692;PMS5003;66984;47.404;18.836;2023-02-28T19:49:56;23.50;20.50;14.00
77692;PMS5003;66984;47.404;18.836;2023-02-28T19:51:00;23.00;20.50;14.00
77692;PMS5003;66984;47.404;18.836;2023-02-28T19:52:05;23.00;21.00;14.00
77692;PMS5003;66984;47.404;18.836;2023-02-28T19:53:17;23.00;20.00;14.00
77692;PMS5003;66984;47.404;18.836;2023-02-28T19:54:20;21.00;20.50;12.00
77692;PMS5003;66984;47.404;18.836;2023-02-28T19:55:23;21.50;21.00;13.00
77692;PMS5003;66984;47.404;18.836;2023-02-28T19:56:25;20.00;20.00;12.00
77692;PMS5003;66984;47.404;18.836;2023-02-28T19:57:28;22.00;20.50;12.00
77692;PMS5003;66984;47.404;18.836;2023-02-28T19:58:31;24.75;22.50;12.00
77692;PMS5003;66984;47.404;18.836;2023-02-28T19:59:34;23.25;22.00;13.00
77692;PMS5003;66984;47.404;18.836;2023-02-28T20:00:40;22.00;21.75;12.00
77692;PMS5003;66984;47.404;18.836;2023-02-28T20:01:43;23.00;22.00;12.75
77692;PMS5003;66984;47.404;18.836;2023-02-28T20:02:45;22.00;21.00;13.00
77692;PMS5003;66984;47.404;18.836;2023-02-28T20:03:48;24.00;21.75;14.00
77692;PMS5003;66984;47.404;18.836;2023-02-28T20:04:52;25.00;24.00;15.00
77692;PMS5003;66984;47.404;18.836;2023-02-28T20:06:02;22.00;21.00;14.00
77692;PMS5003;66984;47.404;18.836;2023-02-28T20:07:08;24.50;21.50;14.00
77692;PMS5003;66984;47.404;18.836;2023-02-28T20:08:11;24.00;21.00;14.75
77692;PMS5003;66984;47.404;18.836;2023-02-28T20:09:14;22.00;21.00;14.00
77692;PMS5003;66984;47.404;18.836;2023-02-28T20:10:17;23.00;21.00;13.75
77692;PMS5003;66984;47.404;18.836;2023-02-28T20:11:20;22.50;22.00;13.75
77692;PMS5003;66984;47.404;18.836;2023-02-28T20:12:24;20.50;20.50;12.00
77692;PMS5003;66984;47.404;18.836;2023-02-28T20:13:28;21.00;20.50;9.50
77692;PMS5003;66984;47.404;18.836;2023-02-28T20:14:31;18.25;18.00;8.00
77692;PMS5003;66984;47.404;18.836;2023-02-28T20:15:36;19.00;19.00;8.00
77692;PMS5003;66984;47.404;18.836;2023-02-28T20:16:39;20.00;20.00;9.75
77692;PMS5003;66984;47.404;18.836;2023-02-28T20:17:42;20.75;20.75;10.75
77692;PMS5003;66984;47.404;18.836;2023-02-28T20:18:51;23.00;21.00;13.00
77692;PMS5003;66984;47.404;18.836;2023-02-28T20:19:53;23.00;20.50;14.00
77692;PMS5003;66984;47.404;18.836;2023-02-28T20:20:56;23.75;22.25;13.00
77692;PMS5003;66984;47.404;18.836;2023-02-28T20:21:59;27.25;24.25;15.00
77692;PMS5003;66984;47.404;18.836;2023-02-28T20:23:03;30.75;26.00;16.00
77692;PMS5003;66984;47.404;18.836;2023-02-28T20:24:06;29.50;26.00;16.00
77692;PMS5003;66984;47.404;18.836;2023-02-28T20:25:09;27.50;24.50;16.00
77692;PMS5003;66984;47.404;18.836;2023-02-28T20:26:13;26.00;23.00;15.00
77692;PMS5003;66984;47.404;18.836;2023-02-28T20:27:15;25.50;24.00;14.75
77692;PMS5003;66984;47.404;18.836;2023-02-28T20:28:18;27.00;24.50;15.00
77692;PMS5003;66984;47.404;18.836;2023-02-28T20:29:22;24.50;24.00;16.00
77692;PMS5003;66984;47.404;18.836;2023-02-28T20:30:28;24.50;24.00;15.50
77692;PMS5003;66984;47.404;18.836;2023-02-28T20:31:31;26.00;24.50;15.00
77692;PMS5003;66984;47.404;18.836;2023-02-28T20:32:34;23.00;22.00;13.00
77692;PMS5003;66984;47.404;18.836;2023-02-28T20:33:40;23.00;22.00;13.00
77692;PMS5003;66984;47.404;18.836;2023-02-28T20:34:46;25.00;24.00;13.00
77692;PMS5003;66984;47.404;18.836;2023-02-28T20:35:50;21.00;21.00;13.00
77692;PMS5003;66984;47.404;18.836;2023-02-28T20:37:00;24.50;21.75;14.00
77692;PMS5003;66984;47.404;18.836;2023-02-28T20:38:02;22.00;20.50;14.00
77692;PMS5003;66984;47.404;18.836;2023-02-28T20:39:05;22.00;20.50;15.00
77692;PMS5003;66984;47.404;18.836;2023-02-28T20:40:08;24.25;22.50;14.00
77692;PMS5003;66984;47.404;18.836;2023-02-28T20:41:12;23.00;21.00;14.00
77692;PMS5003;66984;47.404;18.836;2023-02-28T20:42:15;22.00;20.00;13.00
77692;PMS5003;66984;47.404;18.836;2023-02-28T20:43:17;21.00;20.50;13.00
77692;PMS5003;66984;47.404;18.836;2023-02-28T20:44:20;20.50;19.75;13.00
77692;PMS5003;66984;47.404;18.836;2023-02-28T20:45:23;22.00;20.50;13.00
77692;PMS5003;66984;47.404;18.836;2023-02-28T20:46:25;22.75;22.75;13.75
77692;PMS5003;66984;47.404;18.836;2023-02-28T20:47:29;23.00;23.00;15.00
77692;PMS5003;66984;47.404;18.836;2023-02-28T20:48:32;24.50;23.00;15.00
77692;PMS5003;66984;47.404;18.836;2023-02-28T20:49:38;24.50;23.50;14.00
77692;PMS5003;66984;47.404;18.836;2023-02-28T20:50:46;24.00;24.00;13.75
77692;PMS5003;66984;47.404;18.836;2023-02-28T20:51:53;24.00;24.00;16.00
77692;PMS5003;66984;47.404;18.836;2023-02-28T20:52:55;21.75;21.00;15.00
77692;PMS5003;66984;47.404;18.836;2023-02-28T20:53:58;25.00;23.00;14.00
77692;PMS5003;66984;47.404;18.836;2023-02-28T20:55:02;24.00;23.25;14.00
77692;PMS5003;66984;47.404;18.836;2023-02-28T20:56:06;22.75;21.00;13.00
77692;PMS5003;66984;47.404;18.836;2023-02-28T20:57:11;24.25;22.25;13.00
77692;PMS5003;66984;47.404;18.836;2023-02-28T20:58:14;24.25;21.75;14.00
77692;PMS5003;66984;47.404;18.836;2023-02-28T20:59:16;23.25;21.00;14.00
77692;PMS5003;66984;47.404;18.836;2023-02-28T21:00:22;23.00;23.00;16.00
77692;PMS5003;66984;47.404;18.836;2023-02-28T21:01:28;23.00;23.00;15.00
77692;PMS5003;66984;47.404;18.836;2023-02-28T21:02:34;23.00;22.00;14.00
77692;PMS5003;66984;47.404;18.836;2023-02-28T21:03:38;24.50;23.00;14.25
77692;PMS5003;66984;47.404;18.836;2023-02-28T21:04:41;26.75;23.75;16.00
77692;PMS5003;66984;47.404;18.836;2023-02-28T21:05:44;32.50;27.50;16.75
77692;PMS5003;66984;47.404;18.836;2023-02-28T21:06:47;36.00;28.00;17.00
77692;PMS5003;66984;47.404;18.836;2023-02-28T21:07:49;32.50;26.75;17.00
77692;PMS5003;66984;47.404;18.836;2023-02-28T21:08:52;32.00;28.00;16.00
77692;PMS5003;66984;47.404;18.836;2023-02-28T21:09:55;28.25;26.00;16.00
77692;PMS5003;66984;47.404;18.836;2023-02-28T21:10:58;26.50;24.00;16.00
77692;PMS5003;66984;47.404;18.836;2023-02-28T21:12:01;24.50;22.00;16.00
77692;PMS5003;66984;47.404;18.836;2023-02-28T21:13:03;25.00;23.00;16.00
77692;PMS5003;66984;47.404;18.836;2023-02-28T21:14:07;25.00;24.00;15.25
77692;PMS5003;66984;47.404;18.836;2023-02-28T21:15:13;27.00;24.00;16.00
77692;PMS5003;66984;47.404;18.836;2023-02-28T21:16:17;28.50;25.00;16.00
77692;PMS5003;66984;47.404;18.836;2023-02-28T21:17:22;28.00;25.00;16.00
77692;PMS5003;66984;47.404;18.836;2023-02-28T21:18:25;28.75;26.00;16.00
77692;PMS5003;66984;47.404;18.836;2023-02-28T21:19:28;29.75;26.00;16.00
77692;PMS5003;66984;47.404;18.836;2023-02-28T21:20:31;33.00;28.50;17.00
77692;PMS5003;66984;47.404;18.836;2023-02-28T21:21:35;35.00;29.00;18.50
77692;PMS5003;66984;47.404;18.836;2023-02-28T21:22:40;45.75;36.50;22.00
77692;PMS5003;66984;47.404;18.836;2023-02-28T21:23:43;43.50;35.00;22.00
77692;PMS5003;66984;47.404;18.836;2023-02-28T21:24:47;37.25;31.25;20.25
77692;PMS5003;66984;47.404;18.836;2023-02-28T21:25:50;35.25;28.00;17.00
77692;PMS5003;66984;47.404;18.836;2023-02-28T21:26:54;32.00;28.00;17.00
77692;PMS5003;66984;47.404;18.836;2023-02-28T21:27:58;30.00;26.25;16.00
77692;PMS5003;66984;47.404;18.836;2023-02-28T21:29:01;27.75;25.75;16.00
77692;PMS5003;66984;47.404;18.836;2023-02-28T21:30:05;26.00;24.00;16.00
77692;PMS5003;66984;47.404;18.836;2023-02-28T21:31:10;24.00;23.00;15.00
77692;PMS5003;66984;47.404;18.836;2023-02-28T21:32:15;25.00;24.00;15.00
77692;PMS5003;66984;47.404;18.836;2023-02-28T21:33:18;24.50;24.00;15.00
77692;PMS5003;66984;47.404;18.836;2023-02-28T21:34:22;24.00;22.50;14.25
77692;PMS5003;66984;47.404;18.836;2023-02-28T21:35:24;24.00;23.50;13.00
77692;PMS5003;66984;47.404;18.836;2023-02-28T21:36:28;27.50;25.00;15.00
77692;PMS5003;66984;47.404;18.836;2023-02-28T21:37:35;24.00;24.00;15.00
77692;PMS5003;66984;47.404;18.836;2023-02-28T21:38:40;24.00;24.00;14.00
77692;PMS5003;66984;47.404;18.836;2023-02-28T21:39:43;26.50;24.00;15.00
77692;PMS5003;66984;47.404;18.836;2023-02-28T21:40:47;27.00;24.00;16.00
77692;PMS5003;66984;47.404;18.836;2023-02-28T21:41:52;28.00;25.00;16.00
77692;PMS5003;66984;47.404;18.836;2023-02-28T21:42:55;29.00;26.00;16.00
77692;PMS5003;66984;47.404;18.836;2023-02-28T21:43:58;28.00;25.00;16.00
77692;PMS5003;66984;47.404;18.836;2023-02-28T21:45:01;28.25;26.00;16.00
77692;PMS5003;66984;47.404;18.836;2023-02-28T21:46:06;28.00;26.00;16.00
77692;PMS5003;66984;47.404;18.836;2023-02-28T21:47:10;28.00;25.00;16.00
77692;PMS5003;66984;47.404;18.836;2023-02-28T21:48:13;26.00;24.00;16.00
77692;PMS5003;66984;47.404;18.836;2023-02-28T21:49:17;24.00;23.00;16.00
77692;PMS5003;66984;47.404;18.836;2023-02-28T21:50:20;25.00;23.50;16.00
77692;PMS5003;66984;47.404;18.836;2023-02-28T21:51:26;24.25;23.25;16.00
77692;PMS5003;66984;47.404;18.836;2023-02-28T21:52:32;25.00;24.50;16.00
77692;PMS5003;66984;47.404;18.836;2023-02-28T21:53:36;25.75;24.00;15.00
77692;PMS5003;66984;47.404;18.836;2023-02-28T21:54:39;24.00;22.00;14.75
77692;PMS5003;66984;47.404;18.836;2023-02-28T21:55:42;26.25;24.00;14.00
77692;PMS5003;66984;47.404;18.836;2023-02-28T21:56:45;27.50;24.25;15.00
77692;PMS5003;66984;47.404;18.836;2023-02-28T21:57:49;24.25;24.00;14.00
77692;PMS5003;66984;47.404;18.836;2023-02-28T21:58:52;23.00;23.00;15.75
77692;PMS5003;66984;47.404;18.836;2023-02-28T22:00:02;25.50;23.75;14.00